sensor_id;sensor_type;location;lat;lon;timestamp;P1;durP1;ratioP1;P2;durP2;ratioP2
21233;SDS011;10774;42.178;26.578;2023-04-01T00:00:51;10.40;;;6.30;;
21233;SDS011;10774;42.178;26.578;2023-04-01T00:03:18;14.43;;;6.53;;
21233;SDS011;10774;42.178;26.578;2023-04-01T00:05:44;13.52;;;6.75;;
21233;SDS011;10774;42.178;26.578;2023-04-01T00:08:10;11.70;;;5.53;;
21233;SDS011;10774;42.178;26.578;2023-04-01T00:10:36;11.07;;;5.65;;
21233;SDS011;10774;42.178;26.578;2023-04-01T00:13:01;7.80;;;4.15;;
21233;SDS011;10774;42.178;26.578;2023-04-01T00:15:27;6.97;;;3.75;;
21233;SDS011;10774;42.178;26.578;2023-04-01T00:17:52;9.57;;;4.53;;
21233;SDS011;10774;42.178;26.578;2023-04-01T00:20:17;8.77;;;4.13;;
21233;SDS011;10774;42.178;26.578;2023-04-01T00:22:43;8.48;;;4.20;;
21233;SDS011;10774;42.178;26.578;2023-04-01T00:25:08;6.07;;;3.75;;
21233;SDS011;10774;42.178;26.578;2023-04-01T00:27:34;8.32;;;3.28;;
21233;SDS011;10774;42.178;26.578;2023-04-01T00:30:00;11.35;;;3.97;;
21233;SDS011;10774;42.178;26.578;2023-04-01T00:32:26;7.15;;;3.58;;
21233;SDS011;10774;42.178;26.578;2023-04-01T00:34:51;9.00;;;3.60;;
21233;SDS011;10774;42.178;26.578;2023-04-01T00:37:18;10.65;;;3.45;;
21233;SDS011;10774;42.178;26.578;2023-04-01T00:39:44;5.70;;;2.80;;
21233;SDS011;10774;42.178;26.578;2023-04-01T00:42:10;7.40;;;3.00;;
21233;SDS011;10774;42.178;26.578;2023-04-01T00:44:36;4.22;;;2.60;;
21233;SDS011;10774;42.178;26.578;2023-04-01T00:47:02;4.90;;;3.00;;
21233;SDS011;10774;42.178;26.578;2023-04-01T00:49:31;7.55;;;3.30;;
21233;SDS011;10774;42.178;26.578;2023-04-01T00:52:01;9.80;;;4.57;;
21233;SDS011;10774;42.178;26.578;2023-04-01T00:54:30;7.55;;;3.85;;
21233;SDS011;10774;42.178;26.578;2023-04-01T00:57:01;7.07;;;3.28;;
21233;SDS011;10774;42.178;26.578;2023-04-01T00:59:40;5.70;;;3.13;;
21233;SDS011;10774;42.178;26.578;2023-04-01T01:02:09;10.57;;;4.80;;
21233;SDS011;10774;42.178;26.578;2023-04-01T01:04:37;19.92;;;7.68;;
21233;SDS011;10774;42.178;26.578;2023-04-01T01:13:05;15.65;;;7.80;;
21233;SDS011;10774;42.178;26.578;2023-04-01T01:26:09;27.38;;;16.15;;
21233;SDS011;10774;42.178;26.578;2023-04-01T01:31:23;31.67;;;16.55;;
21233;SDS011;10774;42.178;26.578;2023-04-01T01:36:28;20.97;;;10.83;;
21233;SDS011;10774;42.178;26.578;2023-04-01T01:38:59;26.63;;;14.07;;
21233;SDS011;10774;42.178;26.578;2023-04-01T01:41:25;30.92;;;15.95;;
21233;SDS011;10774;42.178;26.578;2023-04-01T01:43:52;24.20;;;12.80;;
21233;SDS011;10774;42.178;26.578;2023-04-01T01:46:19;23.23;;;12.02;;
21233;SDS011;10774;42.178;26.578;2023-04-01T01:48:48;20.50;;;12.48;;
21233;SDS011;10774;42.178;26.578;2023-04-01T01:51:16;22.27;;;11.77;;
21233;SDS011;10774;42.178;26.578;2023-04-01T01:53:43;22.48;;;13.13;;
21233;SDS011;10774;42.178;26.578;2023-04-01T01:56:09;25.35;;;14.88;;
21233;SDS011;10774;42.178;26.578;2023-04-01T01:58:44;31.55;;;16.88;;
21233;SDS011;10774;42.178;26.578;2023-04-01T02:01:31;23.95;;;13.43;;
21233;SDS011;10774;42.178;26.578;2023-04-01T02:03:59;21.38;;;11.77;;
21233;SDS011;10774;42.178;26.578;2023-04-01T02:06:26;25.67;;;14.73;;
21233;SDS011;10774;42.178;26.578;2023-04-01T02:08:55;23.50;;;14.00;;
21233;SDS011;10774;42.178;26.578;2023-04-01T02:11:34;32.03;;;15.05;;
21233;SDS011;10774;42.178;26.578;2023-04-01T02:14:22;28.20;;;14.88;;
21233;SDS011;10774;42.178;26.578;2023-04-01T02:19:37;34.28;;;16.40;;
21233;SDS011;10774;42.178;26.578;2023-04-01T02:22:06;21.27;;;12.32;;
21233;SDS011;10774;42.178;26.578;2023-04-01T02:24:36;20.75;;;11.13;;
21233;SDS011;10774;42.178;26.578;2023-04-01T02:27:05;15.15;;;9.25;;
21233;SDS011;10774;42.178;26.578;2023-04-01T02:29:30;16.20;;;8.55;;
21233;SDS011;10774;42.178;26.578;2023-04-01T02:31:57;27.63;;;13.30;;
21233;SDS011;10774;42.178;26.578;2023-04-01T02:34:23;30.35;;;15.52;;
21233;SDS011;10774;42.178;26.578;2023-04-01T02:36:50;26.10;;;12.95;;
21233;SDS011;10774;42.178;26.578;2023-04-01T02:39:16;20.63;;;10.30;;
21233;SDS011;10774;42.178;26.578;2023-04-01T02:41:43;15.63;;;8.63;;
21233;SDS011;10774;42.178;26.578;2023-04-01T02:44:10;21.33;;;12.85;;
21233;SDS011;10774;42.178;26.578;2023-04-01T02:46:37;35.72;;;19.38;;
21233;SDS011;10774;42.178;26.578;2023-04-01T02:49:02;40.55;;;21.50;;
21233;SDS011;10774;42.178;26.578;2023-04-01T02:51:28;49.75;;;24.67;;
21233;SDS011;10774;42.178;26.578;2023-04-01T02:53:53;42.60;;;23.92;;
21233;SDS011;10774;42.178;26.578;2023-04-01T02:56:19;32.83;;;16.70;;
21233;SDS011;10774;42.178;26.578;2023-04-01T02:58:45;25.27;;;14.10;;
21233;SDS011;10774;42.178;26.578;2023-04-01T03:01:11;22.45;;;12.90;;
21233;SDS011;10774;42.178;26.578;2023-04-01T03:03:37;19.15;;;12.05;;
21233;SDS011;10774;42.178;26.578;2023-04-01T03:06:09;22.55;;;12.45;;
21233;SDS011;10774;42.178;26.578;2023-04-01T03:08:36;16.85;;;11.02;;
21233;SDS011;10774;42.178;26.578;2023-04-01T03:11:01;22.00;;;11.60;;
21233;SDS011;10774;42.178;26.578;2023-04-01T03:13:27;19.05;;;11.85;;
21233;SDS011;10774;42.178;26.578;2023-04-01T03:15:53;19.15;;;12.68;;
21233;SDS011;10774;42.178;26.578;2023-04-01T03:18:19;25.75;;;13.32;;
21233;SDS011;10774;42.178;26.578;2023-04-01T03:20:44;25.65;;;14.55;;
21233;SDS011;10774;42.178;26.578;2023-04-01T03:23:10;29.95;;;15.15;;
21233;SDS011;10774;42.178;26.578;2023-04-01T03:25:35;28.73;;;13.75;;
21233;SDS011;10774;42.178;26.578;2023-04-01T03:28:01;34.60;;;16.65;;
21233;SDS011;10774;42.178;26.578;2023-04-01T03:30:27;43.10;;;20.25;;
21233;SDS011;10774;42.178;26.578;2023-04-01T03:32:53;53.65;;;25.02;;
21233;SDS011;10774;42.178;26.578;2023-04-01T03:35:18;62.95;;;28.02;;
21233;SDS011;10774;42.178;26.578;2023-04-01T03:37:44;78.00;;;32.92;;
21233;SDS011;10774;42.178;26.578;2023-04-01T03:40:09;95.40;;;41.13;;
21233;SDS011;10774;42.178;26.578;2023-04-01T03:42:35;91.47;;;38.97;;
21233;SDS011;10774;42.178;26.578;2023-04-01T03:45:01;76.68;;;33.33;;
21233;SDS011;10774;42.178;26.578;2023-04-01T03:47:28;85.47;;;38.10;;
21233;SDS011;10774;42.178;26.578;2023-04-01T03:49:54;71.45;;;32.03;;
21233;SDS011;10774;42.178;26.578;2023-04-01T03:52:20;57.45;;;28.15;;
21233;SDS011;10774;42.178;26.578;2023-04-01T03:54:45;74.15;;;53.00;;
21233;SDS011;10774;42.178;26.578;2023-04-01T03:57:11;26.95;;;18.77;;
21233;SDS011;10774;42.178;26.578;2023-04-01T03:59:36;28.70;;;19.27;;
21233;SDS011;10774;42.178;26.578;2023-04-01T04:02:02;25.98;;;14.30;;
21233;SDS011;10774;42.178;26.578;2023-04-01T04:04:27;18.35;;;10.60;;
21233;SDS011;10774;42.178;26.578;2023-04-01T04:06:53;17.40;;;7.47;;
21233;SDS011;10774;42.178;26.578;2023-04-01T04:09:19;11.23;;;6.18;;
21233;SDS011;10774;42.178;26.578;2023-04-01T04:11:44;15.52;;;8.40;;
21233;SDS011;10774;42.178;26.578;2023-04-01T04:14:10;60.60;;;41.08;;
21233;SDS011;10774;42.178;26.578;2023-04-01T04:16:35;87.70;;;56.60;;
21233;SDS011;10774;42.178;26.578;2023-04-01T04:19:02;83.47;;;56.13;;
21233;SDS011;10774;42.178;26.578;2023-04-01T04:21:28;22.35;;;14.82;;
21233;SDS011;10774;42.178;26.578;2023-04-01T04:23:53;25.45;;;14.85;;
21233;SDS011;10774;42.178;26.578;2023-04-01T04:26:19;20.83;;;14.63;;
21233;SDS011;10774;42.178;26.578;2023-04-01T04:28:44;24.92;;;13.70;;
21233;SDS011;10774;42.178;26.578;2023-04-01T04:31:10;20.55;;;12.45;;
21233;SDS011;10774;42.178;26.578;2023-04-01T04:33:36;20.98;;;9.68;;
21233;SDS011;10774;42.178;26.578;2023-04-01T04:36:02;36.90;;;20.80;;
21233;SDS011;10774;42.178;26.578;2023-04-01T04:38:28;47.75;;;28.42;;
21233;SDS011;10774;42.178;26.578;2023-04-01T04:40:54;52.03;;;35.45;;
21233;SDS011;10774;42.178;26.578;2023-04-01T04:43:21;85.97;;;52.00;;
21233;SDS011;10774;42.178;26.578;2023-04-01T04:45:47;108.82;;;65.43;;
21233;SDS011;10774;42.178;26.578;2023-04-01T04:48:13;92.43;;;56.33;;
21233;SDS011;10774;42.178;26.578;2023-04-01T04:50:45;86.13;;;55.95;;
21233;SDS011;10774;42.178;26.578;2023-04-01T04:53:13;78.90;;;47.05;;
21233;SDS011;10774;42.178;26.578;2023-04-01T04:55:42;57.25;;;35.25;;
21233;SDS011;10774;42.178;26.578;2023-04-01T04:58:09;52.13;;;31.38;;
21233;SDS011;10774;42.178;26.578;2023-04-01T05:00:34;35.15;;;21.45;;
21233;SDS011;10774;42.178;26.578;2023-04-01T05:03:00;30.20;;;18.33;;
21233;SDS011;10774;42.178;26.578;2023-04-01T05:05:25;34.78;;;19.35;;
21233;SDS011;10774;42.178;26.578;2023-04-01T05:07:51;31.75;;;18.88;;
21233;SDS011;10774;42.178;26.578;2023-04-01T05:10:16;40.67;;;25.70;;
21233;SDS011;10774;42.178;26.578;2023-04-01T05:12:42;37.83;;;24.42;;
21233;SDS011;10774;42.178;26.578;2023-04-01T05:15:07;32.92;;;22.40;;
21233;SDS011;10774;42.178;26.578;2023-04-01T05:17:33;37.72;;;23.42;;
21233;SDS011;10774;42.178;26.578;2023-04-01T05:19:59;51.55;;;36.22;;
21233;SDS011;10774;42.178;26.578;2023-04-01T05:22:25;47.58;;;36.90;;
21233;SDS011;10774;42.178;26.578;2023-04-01T05:24:50;30.30;;;15.35;;
21233;SDS011;10774;42.178;26.578;2023-04-01T05:27:16;26.35;;;15.73;;
21233;SDS011;10774;42.178;26.578;2023-04-01T05:29:41;47.60;;;29.42;;
21233;SDS011;10774;42.178;26.578;2023-04-01T05:32:07;41.92;;;27.20;;
21233;SDS011;10774;42.178;26.578;2023-04-01T05:34:32;46.70;;;28.25;;
21233;SDS011;10774;42.178;26.578;2023-04-01T05:36:58;39.47;;;27.20;;
21233;SDS011;10774;42.178;26.578;2023-04-01T05:39:23;46.10;;;27.25;;
21233;SDS011;10774;42.178;26.578;2023-04-01T05:41:49;38.47;;;23.33;;
21233;SDS011;10774;42.178;26.578;2023-04-01T05:44:14;35.67;;;22.13;;
21233;SDS011;10774;42.178;26.578;2023-04-01T05:46:40;38.78;;;25.80;;
21233;SDS011;10774;42.178;26.578;2023-04-01T05:49:06;31.13;;;21.58;;
21233;SDS011;10774;42.178;26.578;2023-04-01T05:51:32;29.77;;;19.92;;
21233;SDS011;10774;42.178;26.578;2023-04-01T05:53:57;28.60;;;19.00;;
21233;SDS011;10774;42.178;26.578;2023-04-01T05:56:22;43.88;;;34.17;;
21233;SDS011;10774;42.178;26.578;2023-04-01T05:58:50;22.80;;;16.08;;
21233;SDS011;10774;42.178;26.578;2023-04-01T06:01:17;19.55;;;13.10;;
21233;SDS011;10774;42.178;26.578;2023-04-01T06:03:43;17.38;;;12.75;;
21233;SDS011;10774;42.178;26.578;2023-04-01T06:06:18;26.75;;;14.07;;
21233;SDS011;10774;42.178;26.578;2023-04-01T06:08:48;22.77;;;13.82;;
21233;SDS011;10774;42.178;26.578;2023-04-01T06:11:17;28.05;;;17.08;;
21233;SDS011;10774;42.178;26.578;2023-04-01T06:14:00;31.02;;;17.42;;
21233;SDS011;10774;42.178;26.578;2023-04-01T06:22:06;19.90;;;11.07;;
21233;SDS011;10774;42.178;26.578;2023-04-01T06:24:52;25.52;;;12.63;;
21233;SDS011;10774;42.178;26.578;2023-04-01T06:41:50;14.40;;;5.53;;
21233;SDS011;10774;42.178;26.578;2023-04-01T06:44:49;12.50;;;5.05;;
21233;SDS011;10774;42.178;26.578;2023-04-01T06:55:18;14.25;;;5.40;;
21233;SDS011;10774;42.178;26.578;2023-04-01T06:57:52;12.35;;;4.47;;
21233;SDS011;10774;42.178;26.578;2023-04-01T07:02:58;12.18;;;4.88;;
21233;SDS011;10774;42.178;26.578;2023-04-01T07:05:25;14.15;;;5.03;;
21233;SDS011;10774;42.178;26.578;2023-04-01T07:07:56;15.95;;;4.85;;
21233;SDS011;10774;42.178;26.578;2023-04-01T07:10:34;17.90;;;5.22;;
21233;SDS011;10774;42.178;26.578;2023-04-01T07:13:11;14.05;;;5.20;;
21233;SDS011;10774;42.178;26.578;2023-04-01T07:15:43;18.13;;;5.93;;
21233;SDS011;10774;42.178;26.578;2023-04-01T07:18:25;18.02;;;6.40;;
21233;SDS011;10774;42.178;26.578;2023-04-01T07:20:57;13.73;;;4.90;;
21233;SDS011;10774;42.178;26.578;2023-04-01T07:23:26;21.80;;;8.73;;
21233;SDS011;10774;42.178;26.578;2023-04-01T07:26:00;15.68;;;5.28;;
21233;SDS011;10774;42.178;26.578;2023-04-01T07:28:36;11.55;;;3.90;;
21233;SDS011;10774;42.178;26.578;2023-04-01T07:36:18;21.60;;;5.43;;
21233;SDS011;10774;42.178;26.578;2023-04-01T07:39:05;16.15;;;4.68;;
21233;SDS011;10774;42.178;26.578;2023-04-01T07:50:12;17.80;;;4.70;;
21233;SDS011;10774;42.178;26.578;2023-04-01T07:52:44;14.07;;;4.60;;
21233;SDS011;10774;42.178;26.578;2023-04-01T08:00:33;19.13;;;5.10;;
21233;SDS011;10774;42.178;26.578;2023-04-01T08:03:06;17.90;;;4.97;;
21233;SDS011;10774;42.178;26.578;2023-04-01T08:05:57;22.13;;;6.07;;
21233;SDS011;10774;42.178;26.578;2023-04-01T08:13:53;15.98;;;4.20;;
21233;SDS011;10774;42.178;26.578;2023-04-01T08:19:45;13.18;;;3.70;;
21233;SDS011;10774;42.178;26.578;2023-04-01T08:22:33;16.95;;;4.85;;
21233;SDS011;10774;42.178;26.578;2023-04-01T08:25:06;15.43;;;5.65;;
21233;SDS011;10774;42.178;26.578;2023-04-01T08:27:40;15.23;;;4.15;;
21233;SDS011;10774;42.178;26.578;2023-04-01T08:30:20;16.27;;;5.00;;
21233;SDS011;10774;42.178;26.578;2023-04-01T08:32:51;13.82;;;4.18;;
21233;SDS011;10774;42.178;26.578;2023-04-01T08:38:05;14.88;;;3.90;;
21233;SDS011;10774;42.178;26.578;2023-04-01T08:55:04;15.82;;;4.15;;
21233;SDS011;10774;42.178;26.578;2023-04-01T08:57:53;26.17;;;5.55;;
21233;SDS011;10774;42.178;26.578;2023-04-01T09:00:30;10.50;;;3.30;;
21233;SDS011;10774;42.178;26.578;2023-04-01T09:06:11;15.68;;;3.85;;
21233;SDS011;10774;42.178;26.578;2023-04-01T09:19:31;15.15;;;3.03;;
21233;SDS011;10774;42.178;26.578;2023-04-01T09:27:57;17.58;;;3.20;;
21233;SDS011;10774;42.178;26.578;2023-04-01T09:44:00;12.93;;;3.40;;
21233;SDS011;10774;42.178;26.578;2023-04-01T10:05:49;9.98;;;3.20;;
21233;SDS011;10774;42.178;26.578;2023-04-01T10:13:53;19.13;;;3.43;;
21233;SDS011;10774;42.178;26.578;2023-04-01T10:23:07;12.38;;;3.25;;
21233;SDS011;10774;42.178;26.578;2023-04-01T10:28:40;10.50;;;3.05;;
21233;SDS011;10774;42.178;26.578;2023-04-01T10:56:00;12.98;;;2.70;;
21233;SDS011;10774;42.178;26.578;2023-04-01T11:01:53;14.23;;;3.80;;
21233;SDS011;10774;42.178;26.578;2023-04-01T11:04:29;13.70;;;3.60;;
21233;SDS011;10774;42.178;26.578;2023-04-01T11:19:14;19.48;;;3.92;;
21233;SDS011;10774;42.178;26.578;2023-04-01T11:24:54;17.13;;;3.80;;
21233;SDS011;10774;42.178;26.578;2023-04-01T11:36:02;16.95;;;3.90;;
21233;SDS011;10774;42.178;26.578;2023-04-01T11:41:32;13.98;;;3.95;;
21233;SDS011;10774;42.178;26.578;2023-04-01T11:46:59;15.63;;;4.28;;
21233;SDS011;10774;42.178;26.578;2023-04-01T11:49:52;21.92;;;6.85;;
21233;SDS011;10774;42.178;26.578;2023-04-01T11:52:31;13.55;;;3.35;;
21233;SDS011;10774;42.178;26.578;2023-04-01T11:57:56;18.40;;;3.80;;
21233;SDS011;10774;42.178;26.578;2023-04-01T12:03:41;16.35;;;4.05;;
21233;SDS011;10774;42.178;26.578;2023-04-01T12:06:56;16.90;;;3.90;;
21233;SDS011;10774;42.178;26.578;2023-04-01T12:14:58;16.55;;;3.85;;
21233;SDS011;10774;42.178;26.578;2023-04-01T12:37:33;19.90;;;4.13;;
21233;SDS011;10774;42.178;26.578;2023-04-01T12:49:09;14.77;;;3.05;;
21233;SDS011;10774;42.178;26.578;2023-04-01T13:03:41;16.17;;;4.47;;
21233;SDS011;10774;42.178;26.578;2023-04-01T13:28:25;19.00;;;4.75;;
21233;SDS011;10774;42.178;26.578;2023-04-01T13:31:00;14.68;;;3.65;;
21233;SDS011;10774;42.178;26.578;2023-04-01T13:38:58;16.52;;;4.38;;
21233;SDS011;10774;42.178;26.578;2023-04-01T13:44:19;17.60;;;3.78;;
21233;SDS011;10774;42.178;26.578;2023-04-01T13:55:04;16.77;;;4.15;;
21233;SDS011;10774;42.178;26.578;2023-04-01T14:01:15;14.47;;;3.77;;
21233;SDS011;10774;42.178;26.578;2023-04-01T14:03:59;17.60;;;4.20;;
21233;SDS011;10774;42.178;26.578;2023-04-01T14:11:50;18.73;;;4.93;;
21233;SDS011;10774;42.178;26.578;2023-04-01T14:19:44;23.33;;;4.72;;
21233;SDS011;10774;42.178;26.578;2023-04-01T14:30:54;29.30;;;4.45;;
21233;SDS011;10774;42.178;26.578;2023-04-01T14:33:49;22.80;;;4.57;;
21233;SDS011;10774;42.178;26.578;2023-04-01T14:47:46;17.00;;;3.95;;
21233;SDS011;10774;42.178;26.578;2023-04-01T14:50:17;16.70;;;3.80;;
21233;SDS011;10774;42.178;26.578;2023-04-01T14:55:55;18.38;;;3.70;;
21233;SDS011;10774;42.178;26.578;2023-04-01T14:58:43;19.27;;;3.80;;
21233;SDS011;10774;42.178;26.578;2023-04-01T15:01:13;18.50;;;3.67;;
21233;SDS011;10774;42.178;26.578;2023-04-01T15:09:01;13.00;;;3.30;;
21233;SDS011;10774;42.178;26.578;2023-04-01T15:14:14;20.45;;;3.65;;
21233;SDS011;10774;42.178;26.578;2023-04-01T15:19:41;17.52;;;4.10;;
21233;SDS011;10774;42.178;26.578;2023-04-01T15:33:31;18.02;;;3.78;;
21233;SDS011;10774;42.178;26.578;2023-04-01T15:39:02;13.90;;;3.63;;
21233;SDS011;10774;42.178;26.578;2023-04-01T15:41:42;15.02;;;4.25;;
21233;SDS011;10774;42.178;26.578;2023-04-01T15:47:28;19.05;;;4.72;;
21233;SDS011;10774;42.178;26.578;2023-04-01T15:49:57;16.42;;;4.40;;
21233;SDS011;10774;42.178;26.578;2023-04-01T16:03:14;20.92;;;5.25;;
21233;SDS011;10774;42.178;26.578;2023-04-01T16:06:11;18.95;;;5.07;;
21233;SDS011;10774;42.178;26.578;2023-04-01T16:14:31;19.60;;;4.97;;
21233;SDS011;10774;42.178;26.578;2023-04-01T16:17:07;29.00;;;7.07;;
21233;SDS011;10774;42.178;26.578;2023-04-01T16:20:33;21.13;;;7.45;;
21233;SDS011;10774;42.178;26.578;2023-04-01T16:26:05;13.82;;;4.38;;
21233;SDS011;10774;42.178;26.578;2023-04-01T16:29:24;13.75;;;3.92;;
21233;SDS011;10774;42.178;26.578;2023-04-01T16:34:34;16.80;;;3.67;;
21233;SDS011;10774;42.178;26.578;2023-04-01T16:39:44;13.43;;;4.00;;
21233;SDS011;10774;42.178;26.578;2023-04-01T16:45:45;14.90;;;4.68;;
21233;SDS011;10774;42.178;26.578;2023-04-01T16:48:23;9.60;;;3.92;;
21233;SDS011;10774;42.178;26.578;2023-04-01T16:50:59;7.13;;;4.05;;
21233;SDS011;10774;42.178;26.578;2023-04-01T16:53:31;9.77;;;3.67;;
21233;SDS011;10774;42.178;26.578;2023-04-01T16:56:10;6.22;;;3.35;;
21233;SDS011;10774;42.178;26.578;2023-04-01T17:01:55;12.20;;;4.18;;
21233;SDS011;10774;42.178;26.578;2023-04-01T17:07:10;13.55;;;8.68;;
21233;SDS011;10774;42.178;26.578;2023-04-01T17:15:32;9.25;;;5.38;;
21233;SDS011;10774;42.178;26.578;2023-04-01T17:20:55;13.93;;;7.20;;
21233;SDS011;10774;42.178;26.578;2023-04-01T17:23:36;9.32;;;5.43;;
21233;SDS011;10774;42.178;26.578;2023-04-01T17:26:13;9.32;;;5.30;;
21233;SDS011;10774;42.178;26.578;2023-04-01T17:28:50;7.80;;;5.25;;
21233;SDS011;10774;42.178;26.578;2023-04-01T17:36:56;13.32;;;6.85;;
21233;SDS011;10774;42.178;26.578;2023-04-01T17:50:21;16.83;;;9.90;;
21233;SDS011;10774;42.178;26.578;2023-04-01T17:52:55;14.10;;;8.43;;
21233;SDS011;10774;42.178;26.578;2023-04-01T17:55:40;12.60;;;7.68;;
21233;SDS011;10774;42.178;26.578;2023-04-01T18:10:05;14.40;;;9.27;;
21233;SDS011;10774;42.178;26.578;2023-04-01T18:23:36;14.07;;;7.40;;
21233;SDS011;10774;42.178;26.578;2023-04-01T18:26:10;11.88;;;7.22;;
21233;SDS011;10774;42.178;26.578;2023-04-01T18:28:52;10.18;;;7.20;;
21233;SDS011;10774;42.178;26.578;2023-04-01T18:31:24;8.10;;;5.03;;
21233;SDS011;10774;42.178;26.578;2023-04-01T18:36:47;5.97;;;4.00;;
21233;SDS011;10774;42.178;26.578;2023-04-01T18:39:19;6.70;;;3.28;;
21233;SDS011;10774;42.178;26.578;2023-04-01T18:41:56;6.85;;;3.47;;
21233;SDS011;10774;42.178;26.578;2023-04-01T18:47:27;8.25;;;3.97;;
21233;SDS011;10774;42.178;26.578;2023-04-01T18:50:21;4.72;;;3.05;;
21233;SDS011;10774;42.178;26.578;2023-04-01T18:52:50;10.60;;;4.17;;
21233;SDS011;10774;42.178;26.578;2023-04-01T18:55:24;6.00;;;2.72;;
21233;SDS011;10774;42.178;26.578;2023-04-01T18:57:55;6.15;;;2.95;;
21233;SDS011;10774;42.178;26.578;2023-04-01T19:00:39;6.43;;;2.80;;
21233;SDS011;10774;42.178;26.578;2023-04-01T19:08:51;5.57;;;3.40;;
21233;SDS011;10774;42.178;26.578;2023-04-01T19:11:23;8.10;;;4.82;;
21233;SDS011;10774;42.178;26.578;2023-04-01T19:25:35;6.07;;;3.83;;
21233;SDS011;10774;42.178;26.578;2023-04-01T19:30:44;5.30;;;2.55;;
21233;SDS011;10774;42.178;26.578;2023-04-01T19:36:40;8.20;;;3.83;;
21233;SDS011;10774;42.178;26.578;2023-04-01T19:41:31;4.95;;;3.28;;
21233;SDS011;10774;42.178;26.578;2023-04-01T19:52:55;8.32;;;4.75;;
21233;SDS011;10774;42.178;26.578;2023-04-01T19:58:03;15.25;;;8.82;;
21233;SDS011;10774;42.178;26.578;2023-04-01T20:00:51;14.65;;;7.30;;
21233;SDS011;10774;42.178;26.578;2023-04-01T20:03:25;15.10;;;8.60;;
21233;SDS011;10774;42.178;26.578;2023-04-01T20:06:09;13.38;;;6.22;;
21233;SDS011;10774;42.178;26.578;2023-04-01T20:17:06;7.75;;;5.22;;
21233;SDS011;10774;42.178;26.578;2023-04-01T20:24:57;9.95;;;5.72;;
21233;SDS011;10774;42.178;26.578;2023-04-01T20:27:35;9.30;;;5.50;;
21233;SDS011;10774;42.178;26.578;2023-04-01T20:30:21;8.93;;;4.40;;
21233;SDS011;10774;42.178;26.578;2023-04-01T20:36:24;7.10;;;3.75;;
21233;SDS011;10774;42.178;26.578;2023-04-01T20:52:32;5.13;;;2.35;;
21233;SDS011;10774;42.178;26.578;2023-04-01T20:55:17;4.10;;;2.65;;
21233;SDS011;10774;42.178;26.578;2023-04-01T20:58:30;5.82;;;3.00;;
21233;SDS011;10774;42.178;26.578;2023-04-01T21:00:38;8.07;;;4.28;;
21233;SDS011;10774;42.178;26.578;2023-04-01T21:05:59;9.25;;;5.00;;
21233;SDS011;10774;42.178;26.578;2023-04-01T21:34:25;5.00;;;1.70;;
21233;SDS011;10774;42.178;26.578;2023-04-01T22:05:37;1.88;;;1.33;;
21233;SDS011;10774;42.178;26.578;2023-04-01T22:11:30;3.05;;;1.70;;
21233;SDS011;10774;42.178;26.578;2023-04-01T22:22:20;1.90;;;1.27;;
21233;SDS011;10774;42.178;26.578;2023-04-01T22:30:24;1.40;;;1.20;;
21233;SDS011;10774;42.178;26.578;2023-04-01T22:38:27;3.95;;;1.58;;
21233;SDS011;10774;42.178;26.578;2023-04-01T22:43:55;2.85;;;1.58;;
21233;SDS011;10774;42.178;26.578;2023-04-01T22:51:54;2.78;;;1.45;;
21233;SDS011;10774;42.178;26.578;2023-04-01T22:54:36;2.40;;;1.50;;
21233;SDS011;10774;42.178;26.578;2023-04-01T22:57:14;2.13;;;1.38;;
21233;SDS011;10774;42.178;26.578;2023-04-01T23:02:41;3.33;;;2.03;;
21233;SDS011;10774;42.178;26.578;2023-04-01T23:05:12;2.38;;;1.60;;
21233;SDS011;10774;42.178;26.578;2023-04-01T23:13:18;2.10;;;1.42;;
21233;SDS011;10774;42.178;26.578;2023-04-01T23:15:47;3.35;;;1.90;;
21233;SDS011;10774;42.178;26.578;2023-04-01T23:18:22;3.22;;;1.90;;
21233;SDS011;10774;42.178;26.578;2023-04-01T23:21:26;4.25;;;2.42;;
21233;SDS011;10774;42.178;26.578;2023-04-01T23:27:12;2.75;;;1.88;;
21233;SDS011;10774;42.178;26.578;2023-04-01T23:29:46;2.33;;;1.88;;
21233;SDS011;10774;42.178;26.578;2023-04-01T23:32:15;1.80;;;1.48;;
21233;SDS011;10774;42.178;26.578;2023-04-01T23:34:47;3.35;;;1.85;;
21233;SDS011;10774;42.178;26.578;2023-04-01T23:37:15;3.63;;;1.70;;
21233;SDS011;10774;42.178;26.578;2023-04-01T23:39:44;3.55;;;1.60;;
21233;SDS011;10774;42.178;26.578;2023-04-01T23:42:21;3.78;;;2.00;;
21233;SDS011;10774;42.178;26.578;2023-04-01T23:44:48;2.97;;;1.83;;
21233;SDS011;10774;42.178;26.578;2023-04-01T23:47:21;2.58;;;1.85;;
21233;SDS011;10774;42.178;26.578;2023-04-01T23:49:55;2.55;;;1.73;;
21233;SDS011;10774;42.178;26.578;2023-04-01T23:52:24;1.80;;;1.50;;
21233;SDS011;10774;42.178;26.578;2023-04-01T23:54:58;1.77;;;1.52;;
21233;SDS011;10774;42.178;26.578;2023-04-01T23:57:30;4.63;;;1.80;;
